CSKFT RPVI-RPVS
Flight info
| Callsign | CSKFT |
|---|---|
| Flight time | 0h 28m |
| Altitude | 8000 |
| Route | LAMBO1S LAMBO |
| Aircraft | BE58/L-SDFGRY/C |
Departure
| Time | 2026-05-07 21:34 |
|---|---|
| Airport | Iloilo International Airport (RPVI) |
Arrival
| Time | 2026-05-07 22:02 |
|---|---|
| Airport | Evelio Javier Airport (RPVS) |
| Time | Latitude | Longitude | Altitude | Speed | Heading |
|---|---|---|---|---|---|
| 2026-05-07 21:20 | 10.83000 | 122.49595 | 134 ft | 0 kts | 322° |
| 2026-05-07 21:30 | 10.83011 | 122.49585 | 134 ft | 8 kts | 315° |
| 2026-05-07 21:30 | 10.83057 | 122.49537 | 134 ft | 9 kts | 7° |
| 2026-05-07 21:30 | 10.83096 | 122.49550 | 134 ft | 4 kts | 17° |
| 2026-05-07 21:30 | 10.83130 | 122.49563 | 135 ft | 7 kts | 21° |
| 2026-05-07 21:31 | 10.83182 | 122.49584 | 135 ft | 9 kts | 22° |
| 2026-05-07 21:31 | 10.83233 | 122.49603 | 136 ft | 8 kts | 19° |
| 2026-05-07 21:31 | 10.83293 | 122.49625 | 136 ft | 8 kts | 21° |
| 2026-05-07 21:31 | 10.83336 | 122.49641 | 137 ft | 8 kts | 20° |
| 2026-05-07 21:32 | 10.83399 | 122.49664 | 137 ft | 11 kts | 20° |
| 2026-05-07 21:32 | 10.83480 | 122.49664 | 138 ft | 16 kts | 325° |
| 2026-05-07 21:32 | 10.83529 | 122.49551 | 138 ft | 17 kts | 289° |
| 2026-05-07 21:32 | 10.83558 | 122.49447 | 138 ft | 13 kts | 250° |
| 2026-05-07 21:33 | 10.83518 | 122.49416 | 138 ft | 0 kts | 199° |
| 2026-05-07 21:33 | 10.83302 | 122.49336 | 136 ft | 81 kts | 199° |
| 2026-05-07 21:33 | 10.82559 | 122.49065 | 210 ft | 133 kts | 200° |
| 2026-05-07 21:33 | 10.81673 | 122.48667 | 498 ft | 151 kts | 206° |
| 2026-05-07 21:34 | 10.80610 | 122.48237 | 555 ft | 177 kts | 193° |
| 2026-05-07 21:34 | 10.79366 | 122.47874 | 571 ft | 192 kts | 197° |
| 2026-05-07 21:34 | 10.78131 | 122.47433 | 786 ft | 187 kts | 198° |
| 2026-05-07 21:34 | 10.76919 | 122.46976 | 1047 ft | 186 kts | 198° |
| 2026-05-07 21:35 | 10.75700 | 122.46528 | 1315 ft | 185 kts | 197° |
| 2026-05-07 21:35 | 10.74509 | 122.46086 | 1582 ft | 180 kts | 197° |
| 2026-05-07 21:35 | 10.73306 | 122.45642 | 1729 ft | 187 kts | 196° |
| 2026-05-07 21:35 | 10.72070 | 122.45186 | 1872 ft | 190 kts | 198° |
| 2026-05-07 21:36 | 10.70829 | 122.44726 | 2018 ft | 190 kts | 197° |
| 2026-05-07 21:36 | 10.69585 | 122.44266 | 2162 ft | 191 kts | 198° |
| 2026-05-07 21:36 | 10.68412 | 122.43626 | 2304 ft | 195 kts | 227° |
| 2026-05-07 21:36 | 10.67865 | 122.42420 | 2440 ft | 188 kts | 270° |
| 2026-05-07 21:37 | 10.68221 | 122.41216 | 2593 ft | 176 kts | 315° |
| 2026-05-07 21:37 | 10.69161 | 122.40468 | 2742 ft | 169 kts | 343° |
| 2026-05-07 21:37 | 10.70279 | 122.40271 | 2896 ft | 163 kts | 3° |
| 2026-05-07 21:37 | 10.71418 | 122.40230 | 3056 ft | 165 kts | 2° |
| 2026-05-07 21:38 | 10.72566 | 122.40131 | 3207 ft | 167 kts | 0° |
| 2026-05-07 21:38 | 10.73731 | 122.40003 | 3350 ft | 169 kts | 359° |
| 2026-05-07 21:38 | 10.74910 | 122.39867 | 3494 ft | 171 kts | 360° |
| 2026-05-07 21:38 | 10.76097 | 122.39731 | 3635 ft | 172 kts | 359° |
| 2026-05-07 21:39 | 10.77281 | 122.39593 | 3779 ft | 171 kts | 359° |
| 2026-05-07 21:39 | 10.78468 | 122.39454 | 3928 ft | 172 kts | 359° |
| 2026-05-07 21:39 | 10.79666 | 122.39312 | 4074 ft | 173 kts | 359° |
| 2026-05-07 21:39 | 10.80848 | 122.39179 | 4211 ft | 172 kts | 0° |
| 2026-05-07 21:40 | 10.82037 | 122.39045 | 4359 ft | 172 kts | 359° |
| 2026-05-07 21:40 | 10.83223 | 122.38908 | 4499 ft | 171 kts | 360° |
| 2026-05-07 21:40 | 10.84412 | 122.38769 | 4650 ft | 173 kts | 359° |
| 2026-05-07 21:40 | 10.85618 | 122.38631 | 4791 ft | 176 kts | 359° |
| 2026-05-07 21:41 | 10.86836 | 122.38489 | 4938 ft | 176 kts | 359° |
| 2026-05-07 21:41 | 10.88054 | 122.38347 | 5075 ft | 176 kts | 359° |
| 2026-05-07 21:41 | 10.89270 | 122.38207 | 5217 ft | 176 kts | 360° |
| 2026-05-07 21:41 | 10.90496 | 122.38068 | 5366 ft | 178 kts | 359° |
| 2026-05-07 21:42 | 10.91735 | 122.37923 | 5512 ft | 180 kts | 359° |
| 2026-05-07 21:42 | 10.92984 | 122.37781 | 5654 ft | 181 kts | 360° |
| 2026-05-07 21:42 | 10.94236 | 122.37636 | 5806 ft | 182 kts | 360° |
| 2026-05-07 21:42 | 10.95497 | 122.37491 | 5948 ft | 182 kts | 360° |
| 2026-05-07 21:43 | 10.96730 | 122.37450 | 6108 ft | 178 kts | 12° |
| 2026-05-07 21:43 | 10.97935 | 122.37692 | 6243 ft | 176 kts | 19° |
| 2026-05-07 21:43 | 10.99142 | 122.37948 | 6392 ft | 178 kts | 16° |
| 2026-05-07 21:43 | 11.00376 | 122.38140 | 6534 ft | 181 kts | 13° |
| 2026-05-07 21:44 | 11.01643 | 122.38156 | 6669 ft | 190 kts | 352° |
| 2026-05-07 21:44 | 11.02758 | 122.37386 | 6808 ft | 205 kts | 311° |
| 2026-05-07 21:44 | 11.03214 | 122.36003 | 6943 ft | 212 kts | 271° |
| 2026-05-07 21:44 | 11.02773 | 122.34598 | 7085 ft | 211 kts | 232° |
| 2026-05-07 21:45 | 11.01723 | 122.33585 | 7231 ft | 207 kts | 215° |
| 2026-05-07 21:45 | 11.00958 | 122.32977 | 7334 ft | 206 kts | 214° |
| 2026-05-07 21:45 | 10.99837 | 122.32098 | 7471 ft | 201 kts | 214° |
| 2026-05-07 21:45 | 10.98731 | 122.31240 | 7620 ft | 205 kts | 213° |
| 2026-05-07 21:46 | 10.97590 | 122.30357 | 7747 ft | 205 kts | 212° |
| 2026-05-07 21:46 | 10.96462 | 122.29482 | 7886 ft | 204 kts | 213° |
| 2026-05-07 21:46 | 10.95327 | 122.28603 | 7979 ft | 207 kts | 214° |
| 2026-05-07 21:46 | 10.94158 | 122.27702 | 7984 ft | 214 kts | 213° |
| 2026-05-07 21:47 | 10.92954 | 122.26774 | 7993 ft | 220 kts | 213° |
| 2026-05-07 21:47 | 10.91723 | 122.25823 | 7990 ft | 224 kts | 214° |
| 2026-05-07 21:47 | 10.90474 | 122.24857 | 7992 ft | 227 kts | 214° |
| 2026-05-07 21:47 | 10.89216 | 122.23884 | 7994 ft | 228 kts | 214° |
| 2026-05-07 21:48 | 10.87943 | 122.22900 | 7990 ft | 230 kts | 214° |
| 2026-05-07 21:48 | 10.86660 | 122.21911 | 7988 ft | 231 kts | 213° |
| 2026-05-07 21:48 | 10.85236 | 122.21207 | 7976 ft | 226 kts | 190° |
| 2026-05-07 21:48 | 10.83731 | 122.20898 | 7965 ft | 222 kts | 185° |
| 2026-05-07 21:49 | 10.82178 | 122.20641 | 7782 ft | 230 kts | 184° |
| 2026-05-07 21:49 | 10.80601 | 122.20249 | 7599 ft | 240 kts | 199° |
| 2026-05-07 21:49 | 10.79167 | 122.19431 | 7408 ft | 232 kts | 208° |
| 2026-05-07 21:49 | 10.77837 | 122.18568 | 7200 ft | 220 kts | 209° |
| 2026-05-07 21:50 | 10.76621 | 122.17661 | 7005 ft | 217 kts | 226° |
| 2026-05-07 21:50 | 10.75957 | 122.16309 | 6812 ft | 216 kts | 261° |
| 2026-05-07 21:50 | 10.75801 | 122.14794 | 6468 ft | 217 kts | 266° |
| 2026-05-07 21:50 | 10.75659 | 122.13242 | 6041 ft | 224 kts | 266° |
| 2026-05-07 21:51 | 10.75511 | 122.11692 | 5573 ft | 215 kts | 266° |
| 2026-05-07 21:51 | 10.75352 | 122.10207 | 5120 ft | 209 kts | 266° |
| 2026-05-07 21:51 | 10.75196 | 122.08742 | 4670 ft | 208 kts | 266° |
| 2026-05-07 21:51 | 10.75039 | 122.07282 | 4208 ft | 207 kts | 265° |
| 2026-05-07 21:52 | 10.74892 | 122.05845 | 3701 ft | 200 kts | 266° |
| 2026-05-07 21:52 | 10.74761 | 122.04450 | 3211 ft | 197 kts | 265° |
| 2026-05-07 21:52 | 10.74648 | 122.03080 | 2702 ft | 191 kts | 266° |
| 2026-05-07 21:52 | 10.74539 | 122.01791 | 2266 ft | 172 kts | 265° |
| 2026-05-07 21:53 | 10.74437 | 122.00662 | 1914 ft | 148 kts | 266° |
| 2026-05-07 21:53 | 10.74347 | 121.99685 | 1568 ft | 132 kts | 266° |
| 2026-05-07 21:53 | 10.74282 | 121.98795 | 1331 ft | 126 kts | 268° |
| 2026-05-07 21:53 | 10.74202 | 121.97901 | 1176 ft | 125 kts | 261° |
| 2026-05-07 21:54 | 10.73985 | 121.97073 | 1120 ft | 119 kts | 252° |
| 2026-05-07 21:54 | 10.73637 | 121.96318 | 991 ft | 120 kts | 243° |
| 2026-05-07 21:54 | 10.73289 | 121.95548 | 843 ft | 120 kts | 259° |
| 2026-05-07 21:54 | 10.73421 | 121.94776 | 807 ft | 111 kts | 306° |
| 2026-05-07 21:55 | 10.73920 | 121.94123 | 621 ft | 121 kts | 311° |
| 2026-05-07 21:55 | 10.74540 | 121.93542 | 491 ft | 123 kts | 327° |
| 2026-05-07 21:55 | 10.75347 | 121.93263 | 293 ft | 124 kts | 354° |
| 2026-05-07 21:55 | 10.76214 | 121.93242 | 82 ft | 125 kts | 359° |
| 2026-05-07 21:56 | 10.77064 | 121.93246 | 59 ft | 120 kts | 358° |
| 2026-05-07 21:56 | 10.77888 | 121.93233 | 419 ft | 116 kts | 358° |
| 2026-05-07 21:56 | 10.78588 | 121.92956 | 496 ft | 115 kts | 304° |
| 2026-05-07 21:56 | 10.78456 | 121.92162 | 485 ft | 132 kts | 227° |
| 2026-05-07 21:57 | 10.77619 | 121.91776 | 605 ft | 135 kts | 194° |
| 2026-05-07 21:57 | 10.76703 | 121.91702 | 616 ft | 130 kts | 179° |
| 2026-05-07 21:57 | 10.75799 | 121.91753 | 568 ft | 129 kts | 177° |
| 2026-05-07 21:57 | 10.74915 | 121.91842 | 635 ft | 128 kts | 171° |
| 2026-05-07 21:58 | 10.74122 | 121.92201 | 749 ft | 133 kts | 130° |
| 2026-05-07 21:58 | 10.74001 | 121.93083 | 743 ft | 129 kts | 56° |
| 2026-05-07 21:58 | 10.74777 | 121.93362 | 473 ft | 126 kts | 349° |
| 2026-05-07 21:58 | 10.75648 | 121.93260 | 225 ft | 125 kts | 356° |
| 2026-05-07 21:59 | 10.76509 | 121.93244 | 53 ft | 123 kts | 0° |
| 2026-05-07 21:59 | 10.77369 | 121.93247 | 140 ft | 126 kts | 358° |
| 2026-05-07 21:59 | 10.78235 | 121.93199 | 536 ft | 129 kts | 346° |
| 2026-05-07 21:59 | 10.78845 | 121.92516 | 731 ft | 136 kts | 287° |
| 2026-05-07 22:00 | 10.78838 | 121.91589 | 1061 ft | 131 kts | 267° |
| 2026-05-07 22:00 | 10.78351 | 121.90827 | 1046 ft | 145 kts | 200° |
| 2026-05-07 22:00 | 10.77372 | 121.90907 | 1180 ft | 137 kts | 169° |
| 2026-05-07 22:00 | 10.76431 | 121.91170 | 1146 ft | 143 kts | 162° |
| 2026-05-07 22:01 | 10.75493 | 121.91458 | 1085 ft | 139 kts | 163° |
| 2026-05-07 22:01 | 10.74607 | 121.91798 | 1006 ft | 132 kts | 154° |
| 2026-05-07 22:01 | 10.74059 | 121.92482 | 951 ft | 127 kts | 101° |
| 2026-05-07 22:01 | 10.74343 | 121.93219 | 650 ft | 114 kts | 25° |
| 2026-05-07 22:02 | 10.75115 | 121.93244 | 330 ft | 112 kts | 356° |
| 2026-05-07 22:02 | 10.75868 | 121.93240 | 105 ft | 105 kts | 358° |
| 2026-05-07 22:02 | 10.76539 | 121.93246 | 29 ft | 80 kts | 360° |
| 2026-05-07 22:02 | 10.76879 | 121.93246 | 27 ft | 22 kts | 359° |
| 2026-05-07 22:03 | 10.77006 | 121.93254 | 23 ft | 17 kts | 353° |
| 2026-05-07 22:03 | 10.76992 | 121.93244 | 24 ft | 5 kts | 161° |
| 2026-05-07 22:03 | 10.76964 | 121.93246 | 25 ft | 9 kts | 179° |
| 2026-05-07 22:03 | 10.76826 | 121.93249 | 28 ft | 23 kts | 175° |
| 2026-05-07 22:04 | 10.76720 | 121.93260 | 28 ft | 10 kts | 108° |
| 2026-05-07 22:04 | 10.76727 | 121.93312 | 28 ft | 3 kts | 87° |
| 2026-05-07 22:04 | 10.76727 | 121.93320 | 28 ft | 0 kts | 89° |
| 2026-05-07 22:04 | 10.76732 | 121.93329 | 28 ft | 3 kts | 12° |
| 2026-05-07 22:05 | 10.76735 | 121.93329 | 28 ft | 0 kts | 354° |